Hauptseite
METAR-TAF:

METAR-TAF

Flughäfen :

Leipzig-Altenburg Airport

Altenburg, Deutschland

Breite: 50-58N, Länge: 012-30E, Höhe: 195 m

Beobachtung

Neuester Wetterbericht von vor 19 Minuten, um 13:50 UTC
Wind 7 kt aus West/Nordwest, variierte zwischen West/Südwest und Nordwest
Temperatur 25°C
Luftfeuchtigkeit 47%
Luftdruck 1022 hPa
Sichtweite 10 km oder mehr
keine Wolken unter 1500 m und keine Kumulonimbus oder Gewitterwolken

METAR: EDAC 191350Z 29007KT 250V320 CAVOK 25/13 Q1022

Zeit: 16:09 (14:09 UTC)

Prognose

Neuester Wetterbericht von vor 3 Stunden und 9 Minuten, um 11:00 UTC
Gültige Prognose vom 19 um 12 UTC bis 19 um 21 UTC
Wind 7 kt aus West/Nordwest
Sichtweite 10 km oder mehr
Aufgelockert bewölkt in der Höhe von 4500 ft
Übergehend zu
vom 19 um 17 UTC bis 19 um 20 UTC
Wind 3 kt aus unterschiedlichen Richtungen

TAF: EDAC 191100Z 1912/1921 30007KT 9999 SCT045 BECMG 1917/1920 VRB03KT

Wetterbeobachtungen und Prognosen von mehr als 4000 Flughäfen (METAR und TAF Bericht).

Die verfügbaren Stationen werden durch gelbe und rote Markierungen auf der Karte dargestellt.

Führen Sie die Maus auf sie, um den Namen der Station zu sehen.

Darauf klicken, um die Beobachtung von Wetterbeobachtungen und Prognosen zu sehen.

Um die Karte zu ändern : klicken Sie auf den grünen Tasten mit einem schwarzen Kreuz Zum Vergrößern, auf den grünen Button mit einem Gedankenstrich zu verkleinern, oder auf die grünen Pfeile für benachbarte Karten.


METAR-TAF: